Portada
METAR-TAF:

METAR-TAF

Aeroports :

Pavlodar, Kazakhstan

latitud: 52-11-42N, longitud: 077-04-26E, altitud: 125 m

Observació

L'informe es va fer fa 24 minuts, a les 08:30 UTC
Vent 19 kt del Oest
Temperatura 2°C
Humitat 64%
Pressió 1023 hPa
Visibilitat 10 km o més
sense núvols per sota de 1500 mi sense presència de cumulonimbus.

METAR: UASP 120830Z 26010MPS CAVOK 02/M04 Q1023 R21/0///70 NOSIG RMK QFE756/1008

Hora: 14:54 (08:54 UTC)

Pronòstic

L'informe es va fer fa 54 minuts, a les 08:00 UTC
Pronòstic vàlid del 12 a les 09 UTC al 12 a les 18 UTC
Vent 21 kt del Oest/Sud-Oest
Visibilitat 10 km o més
Cel ennuvolat a una alçada de 2000 ft
Temporalment
l' 12 a les 09 UTC al 12 a les 15 UTC
Vent 33 kt del Oest/Sud-Oest

TAF: UASP 120800Z 1209/1218 25011MPS 9999 BKN020 TEMPO 1209/1215 24017MPS

Observacions i pronòstics meteorològics de més de 4000 aeroports (METAR i TAF).

Les estacions disponibles són els punts grocs i vermells al mapa.

Posi el ratolí al punt desitjat per veure el nom de l'estació.

Feu clic per veure les observacions i els pronòstics meteorològics.

Per canviar el mapa: feu clic els botons verds amb una creu de color negre per apropar; al botó verd amb un guió per allunyar la imatge; o en les fletxes verdes per a mapes adjacents.


METAR-TAF: